Tuesday, February 19, 2019, 9:09 PM EST
Back to Local

KAFN, Jaffrey Muni-silver Ranch

Location: Jaffrey, NH, United States Lat: 42.8
Local Time: 9:09 PM EST ( 2:09 GMT) Lon: -72
Time Zone: US/Eastern Elev: 1040 ft

Show me the last for .
Show Decoded

2019-02-19 20:52 METAR KAFN 200152Z AUTO 27008KT 10SM CLR M08/M16 A3048 RMK AO2 SLP347 T10781161
                 =
2019-02-19 19:52 METAR KAFN 200052Z AUTO VRB04KT 10SM CLR M07/M16 A3046 RMK AO2 SLP341 T10721161
                 =
2019-02-19 18:52 METAR KAFN 192352Z AUTO 28006KT 10SM CLR M07/M17 A3045 RMK AO2 SLP338 T10671167
                 11039 21067 53014 =
2019-02-19 17:52 METAR KAFN 192252Z AUTO VRB06KT 10SM CLR M06/M19 A3043 RMK AO2 SLP332 T10561189
                 =
2019-02-19 16:52 METAR KAFN 192152Z AUTO 29006KT 10SM CLR M04/M18 A3040 RMK AO2 SLP323 T10441178
                 =
2019-02-19 15:52 METAR KAFN 192052Z AUTO 30005KT 10SM CLR M04/M17 A3041 RMK AO2 SLP321 T10441172
                 56002 =
2019-02-19 14:52 METAR KAFN 191952Z AUTO VRB04KT 10SM CLR M04/M17 A3041 RMK AO2 SLP321 T10441172
                 =
2019-02-19 13:52 METAR KAFN 191852Z AUTO 31008G17KT 280V360 10SM CLR M05/M17 A3041 RMK AO2 SLP321
                 T10501172 =
2019-02-19 12:52 METAR KAFN 191752Z AUTO 28012G18KT 10SM CLR M06/M18 A3041 RMK AO2 SLP324
                 T10561178 11050 21122 51001 =
2019-02-19 11:52 METAR KAFN 191652Z AUTO 30008KT 10SM CLR M06/M17 A3041 RMK AO2 SLP324 T10611167
                 =
2019-02-19 10:52 METAR KAFN 191552Z AUTO 30007KT 10SM CLR M07/M17 A3042 RMK AO2 SLP328 T10671167
                 =
2019-02-19 09:52 METAR KAFN 191452Z AUTO VRB06KT 10SM CLR M08/M17 A3041 RMK AO2 SLP324 T10781167
                 51026 =
2019-02-19 08:52 METAR KAFN 191352Z AUTO VRB05KT 10SM CLR M09/M17 A3039 RMK AO2 SLP315 T10891167
                 =
2019-02-19 07:52 METAR KAFN 191252Z AUTO VRB04KT 10SM CLR M11/M16 A3037 RMK AO2 SLP311 T11111161
                 =
2019-02-19 06:52 METAR KAFN 191152Z AUTO 06006KT 10SM CLR M12/M16 A3033 RMK AO2 SLP297 70002
                 T11221161 11100 21156 51023 =
2019-02-19 05:52 METAR KAFN 191052Z AUTO 00000KT 10SM CLR M14/M17 A3031 RMK AO2 SLP288 T11441167
                 =
2019-02-19 04:52 METAR KAFN 190952Z AUTO 13004KT 10SM CLR M15/M17 A3029 RMK AO2 SLP282 T11501172
                 =
2019-02-19 03:52 METAR KAFN 190852Z AUTO 17004KT 10SM CLR M12/M16 A3026 RMK AO2 SLP272 T11171161
                 51019 =
2019-02-19 02:52 METAR KAFN 190752Z AUTO VRB04KT 10SM CLR M11/M16 A3025 RMK AO2 SLP267 T11111161
                 =
2019-02-19 01:52 METAR KAFN 190652Z AUTO 00000KT 10SM CLR M10/M16 A3022 RMK AO2 SLP257 T11001161
                 =
2019-02-19 00:52 METAR KAFN 190552Z AUTO VRB03KT 10SM CLR M10/M16 A3021 RMK AO2 SLP251 T11001161
                 11044 21100 53028 =
2019-02-18 23:52 METAR KAFN 190452Z AUTO 34008G16KT 300V030 10SM CLR M10/M16 A3017 RMK AO2 SLP240
                 T11001156 410281100 =
2019-02-18 22:52 METAR KAFN 190352Z AUTO VRB05KT 10SM CLR M10/M16 A3015 RMK AO2 SLP234 T11001156
                 =
2019-02-18 21:52 METAR KAFN 190252Z AUTO VRB04KT 10SM CLR M09/M14 A3012 RMK AO2 SLP223 T10891144
                 51046 =

Support USWX by starting your Amazon purchase here.